createdAt,value
2023-08-20T00:00:05.706Z,26.96
2023-08-20T00:02:37.223Z,26.83
2023-08-20T00:05:08.860Z,26.65
2023-08-20T00:07:40.214Z,26.62
2023-08-20T00:10:13.586Z,26.56
2023-08-20T00:12:44.177Z,26.60
2023-08-20T00:15:14.903Z,26.62
2023-08-20T00:17:46.019Z,26.71
2023-08-20T00:20:18.540Z,26.45
2023-08-20T00:22:49.519Z,26.89
2023-08-20T00:25:22.382Z,26.95
2023-08-20T00:27:52.999Z,27.01
2023-08-20T00:30:23.696Z,26.89
2023-08-20T00:32:54.818Z,26.90
2023-08-20T00:35:25.766Z,26.79
2023-08-20T00:37:56.676Z,26.67
2023-08-20T00:40:29.125Z,26.45
2023-08-20T00:42:59.655Z,26.89
2023-08-20T00:45:31.283Z,27.11
2023-08-20T00:48:02.278Z,27.36
2023-08-20T00:50:33.125Z,27.46
2023-08-20T00:53:04.124Z,27.43
2023-08-20T00:55:36.478Z,27.27
2023-08-20T00:58:07.605Z,27.16
2023-08-20T01:00:38.217Z,27.23
2023-08-20T01:03:09.184Z,27.43
2023-08-20T01:05:54.878Z,27.63
2023-08-20T01:08:35.539Z,27.89
2023-08-20T01:11:14.209Z,27.94
2023-08-20T01:13:44.001Z,28.00
2023-08-20T01:16:14.596Z,28.09
2023-08-20T01:18:45.506Z,28.09
2023-08-20T01:21:41.733Z,28.20
2023-08-20T01:24:24.460Z,28.32
2023-08-20T01:27:11.692Z,28.42
2023-08-20T01:29:44.760Z,28.57
2023-08-20T01:32:16.399Z,28.45
2023-08-20T01:34:47.610Z,28.63
2023-08-20T01:37:18.349Z,28.62
2023-08-20T01:39:48.978Z,28.55
2023-08-20T01:42:19.471Z,28.43
2023-08-20T01:44:51.702Z,28.86
2023-08-20T01:47:22.459Z,28.81
2023-08-20T01:49:53.231Z,28.82
2023-08-20T01:52:23.792Z,28.93
2023-08-20T01:54:54.657Z,28.74
2023-08-20T01:57:25.249Z,28.78
2023-08-20T01:59:57.455Z,28.75
2023-08-20T02:02:28.409Z,28.71
2023-08-20T02:04:59.053Z,28.68
2023-08-20T02:07:29.690Z,28.76
2023-08-20T02:10:00.287Z,28.99
2023-08-20T02:12:30.839Z,29.21
2023-08-20T02:15:03.909Z,29.10
2023-08-20T02:17:34.867Z,29.02
2023-08-20T02:20:06.524Z,29.05
2023-08-20T02:22:37.129Z,29.17
2023-08-20T02:25:08.558Z,29.06
2023-08-20T02:27:39.176Z,29.36
2023-08-20T02:30:15.324Z,29.45
2023-08-20T02:32:45.940Z,29.23
2023-08-20T02:35:18.896Z,29.38
2023-08-20T02:37:49.444Z,29.32
2023-08-20T02:40:20.174Z,29.50
2023-08-20T02:42:50.831Z,29.52
2023-08-20T02:45:23.006Z,29.50
2023-08-20T02:47:53.703Z,29.45
2023-08-20T02:50:24.311Z,29.55
2023-08-20T02:52:54.852Z,29.64
2023-08-20T02:55:25.346Z,29.72
2023-08-20T02:57:55.971Z,29.80
2023-08-20T03:00:28.150Z,29.89
2023-08-20T03:02:58.985Z,29.95
2023-08-20T03:05:29.767Z,29.95
2023-08-20T03:08:00.301Z,30.02
2023-08-20T03:10:30.949Z,30.04
2023-08-20T03:13:01.552Z,30.00
2023-08-20T03:15:34.144Z,29.90
2023-08-20T03:18:05.207Z,30.14
2023-08-20T03:20:36.540Z,30.25
2023-08-20T03:23:07.445Z,30.33
2023-08-20T03:25:37.942Z,30.45
2023-08-20T03:28:08.905Z,30.27
2023-08-20T03:30:41.249Z,30.48
2023-08-20T03:33:11.838Z,30.50
2023-08-20T03:35:43.286Z,30.58
2023-08-20T03:38:13.874Z,30.36
2023-08-20T03:40:44.473Z,30.66
2023-08-20T03:43:14.941Z,30.71
2023-08-20T03:45:47.091Z,30.74
2023-08-20T03:48:17.672Z,30.67
2023-08-20T03:50:48.644Z,30.85
2023-08-20T03:53:19.307Z,30.91
2023-08-20T03:55:52.487Z,30.93
2023-08-20T03:58:23.099Z,30.87
2023-08-20T04:00:55.215Z,30.85
2023-08-20T04:03:25.770Z,30.99
2023-08-20T04:05:56.406Z,30.92
2023-08-20T04:08:27.072Z,30.88
2023-08-20T04:10:57.750Z,30.85
2023-08-20T04:13:28.405Z,30.69
2023-08-20T04:16:00.926Z,30.51
2023-08-20T04:18:31.634Z,30.77
2023-08-20T04:21:02.300Z,30.86
2023-08-20T04:23:32.859Z,30.99
2023-08-20T04:26:03.729Z,31.09
2023-08-20T04:28:34.331Z,31.10
2023-08-20T04:31:06.514Z,31.08
2023-08-20T04:33:37.252Z,31.26
2023-08-20T04:36:08.001Z,31.36
2023-08-20T04:38:38.587Z,31.33
2023-08-20T04:41:09.238Z,31.28
2023-08-20T04:43:39.771Z,31.21
2023-08-20T04:46:11.974Z,31.20
2023-08-20T04:48:42.537Z,31.18
2023-08-20T04:51:13.134Z,31.25
2023-08-20T04:53:43.729Z,31.10
2023-08-20T04:56:14.264Z,31.44
2023-08-20T04:58:45.358Z,31.40
2023-08-20T05:01:18.176Z,31.45
2023-08-20T05:03:48.961Z,31.48
2023-08-20T05:06:19.624Z,31.46
2023-08-20T05:08:50.176Z,31.35
2023-08-20T05:11:20.682Z,31.29
2023-08-20T05:13:53.050Z,31.29
2023-08-20T05:16:25.342Z,31.37
2023-08-20T05:18:55.961Z,31.38
2023-08-20T05:21:27.004Z,31.22
2023-08-20T05:23:57.629Z,30.94
2023-08-20T05:26:28.804Z,30.68
2023-08-20T05:29:01.829Z,30.72
2023-08-20T05:31:34.107Z,30.64
2023-08-20T05:34:04.775Z,30.42
2023-08-20T05:36:35.424Z,30.06
2023-08-20T05:39:07.991Z,29.89
2023-08-20T05:41:38.667Z,29.75
2023-08-20T05:44:10.115Z,29.70
2023-08-20T05:46:42.597Z,29.73
2023-08-20T05:49:13.101Z,29.63
2023-08-20T05:51:43.857Z,29.82
2023-08-20T05:54:14.657Z,29.92
2023-08-20T05:56:45.305Z,29.85
2023-08-20T05:59:15.976Z,29.79
2023-08-20T06:01:48.263Z,29.59
2023-08-20T06:04:20.408Z,29.51
2023-08-20T06:06:51.049Z,29.52
2023-08-20T06:09:21.729Z,29.70
2023-08-20T06:11:53.364Z,29.88
2023-08-20T06:14:23.915Z,30.08
2023-08-20T06:16:56.144Z,30.21
2023-08-20T06:19:27.792Z,30.30
2023-08-20T06:21:58.454Z,30.32
2023-08-20T06:24:29.071Z,30.23
2023-08-20T06:26:59.710Z,30.31
2023-08-20T06:29:30.289Z,30.12
2023-08-20T06:32:02.544Z,29.99
2023-08-20T06:34:33.139Z,29.95
2023-08-20T06:37:03.670Z,30.04
2023-08-20T06:39:34.323Z,29.96
2023-08-20T06:42:07.742Z,30.00
2023-08-20T06:44:38.842Z,29.94
2023-08-20T06:47:11.063Z,29.93
2023-08-20T06:49:41.599Z,29.83
2023-08-20T06:52:12.213Z,29.82
2023-08-20T06:54:42.810Z,29.75
2023-08-20T06:57:13.336Z,29.78
2023-08-20T06:59:44.737Z,29.58
2023-08-20T07:02:17.229Z,29.36
2023-08-20T07:04:47.833Z,29.21
2023-08-20T07:07:18.441Z,29.24
2023-08-20T07:09:49.042Z,29.39
2023-08-20T07:12:19.963Z,29.48
2023-08-20T07:14:50.412Z,29.62
2023-08-20T07:17:22.606Z,29.45
2023-08-20T07:19:53.162Z,29.33
2023-08-20T07:22:23.673Z,29.02
2023-08-20T07:24:54.855Z,28.99
2023-08-20T07:27:25.369Z,29.08
2023-08-20T07:29:55.998Z,29.24
2023-08-20T07:32:28.074Z,29.37
2023-08-20T07:34:58.528Z,29.36
2023-08-20T07:37:29.505Z,29.35
2023-08-20T07:40:00.431Z,29.37
2023-08-20T07:42:30.898Z,29.43
2023-08-20T07:45:01.289Z,29.42
2023-08-20T07:47:33.790Z,29.38
2023-08-20T07:50:04.548Z,29.37
2023-08-20T07:52:35.128Z,29.32
2023-08-20T07:55:05.687Z,29.18
2023-08-20T07:57:36.581Z,29.11
2023-08-20T08:00:08.505Z,29.12
2023-08-20T08:02:40.704Z,29.12
2023-08-20T08:05:12.123Z,29.09
2023-08-20T08:07:42.678Z,29.03
2023-08-20T08:10:13.486Z,28.99
2023-08-20T08:12:43.989Z,28.97
2023-08-20T08:15:15.063Z,28.93
2023-08-20T08:17:47.879Z,28.87
2023-08-20T08:20:18.454Z,28.84
2023-08-20T08:22:49.177Z,28.72
2023-08-20T08:25:21.238Z,28.62
2023-08-20T08:28:00.301Z,28.61
2023-08-20T08:30:32.549Z,28.53
2023-08-20T08:33:04.799Z,28.44
2023-08-20T08:35:35.364Z,28.37
2023-08-20T08:38:06.836Z,28.31
2023-08-20T08:40:38.259Z,28.24
2023-08-20T08:43:09.723Z,28.11
2023-08-20T08:45:40.485Z,28.05
2023-08-20T08:48:13.957Z,28.00
2023-08-20T08:50:45.525Z,27.86
2023-08-20T08:53:17.714Z,27.66
2023-08-20T08:55:48.557Z,27.50
2023-08-20T08:58:20.325Z,27.47
2023-08-20T09:01:00.802Z,27.37
2023-08-20T09:03:34.824Z,27.19
2023-08-20T09:06:12.481Z,26.85
2023-08-20T09:08:44.222Z,26.55
2023-08-20T09:11:16.039Z,26.33
2023-08-20T09:13:47.953Z,26.10
2023-08-20T09:16:19.869Z,25.92
2023-08-20T09:18:53.362Z,25.72
2023-08-20T09:21:33.065Z,25.39
2023-08-20T09:24:06.661Z,25.07
2023-08-20T09:26:39.193Z,24.76
2023-08-20T09:29:10.982Z,24.40
2023-08-20T09:31:45.517Z,24.02
2023-08-20T09:34:21.075Z,23.75
2023-08-20T09:36:53.321Z,23.38
2023-08-20T09:39:24.634Z,23.17
2023-08-20T09:41:56.969Z,22.94
2023-08-20T09:44:32.764Z,22.73
2023-08-20T09:47:07.082Z,22.63
2023-08-20T09:49:42.597Z,22.56
2023-08-20T09:52:15.580Z,21.76
2023-08-20T09:55:04.686Z,22.28
2023-08-20T09:57:41.286Z,21.78
2023-08-20T10:00:15.963Z,21.97
2023-08-20T10:02:48.828Z,21.92
2023-08-20T10:05:23.241Z,21.85
2023-08-20T10:07:55.487Z,21.76
2023-08-20T10:10:26.826Z,21.60
2023-08-20T10:12:58.654Z,21.23
2023-08-20T10:15:30.761Z,21.03
2023-08-20T10:18:03.378Z,20.91
2023-08-20T10:20:36.861Z,20.87
2023-08-20T10:23:08.504Z,20.85
2023-08-20T10:25:48.833Z,20.56
2023-08-20T10:28:26.598Z,20.82
2023-08-20T10:31:13.409Z,20.78
2023-08-20T10:33:54.357Z,20.62
2023-08-20T10:36:31.217Z,20.51
2023-08-20T10:39:10.989Z,20.31
2023-08-20T10:41:43.164Z,20.18
2023-08-20T10:44:14.821Z,20.12
2023-08-20T10:46:55.943Z,20.10
2023-08-20T10:49:28.075Z,20.01
2023-08-20T10:52:06.459Z,19.95
2023-08-20T10:54:38.537Z,19.94
2023-08-20T10:57:10.551Z,19.89
2023-08-20T10:59:45.514Z,19.82
2023-08-20T11:02:20.854Z,19.81
2023-08-20T11:04:53.854Z,19.77
2023-08-20T11:07:30.133Z,19.74
2023-08-20T11:10:02.698Z,19.81
2023-08-20T11:12:35.249Z,19.83
2023-08-20T11:15:07.894Z,19.82
2023-08-20T11:17:39.795Z,19.79
2023-08-20T11:20:12.261Z,19.71
2023-08-20T11:22:46.920Z,19.36
2023-08-20T11:25:18.509Z,19.59
2023-08-20T11:27:50.907Z,19.49
2023-08-20T11:30:22.751Z,19.37
2023-08-20T11:32:55.275Z,19.29
2023-08-20T11:35:27.976Z,19.30
2023-08-20T11:38:01.470Z,19.28
2023-08-20T11:40:33.506Z,18.96
2023-08-20T11:43:05.984Z,19.07
2023-08-20T11:45:37.722Z,18.94
2023-08-20T11:48:13.231Z,18.97
2023-08-20T11:50:44.886Z,18.98
2023-08-20T11:53:18.442Z,18.74
2023-08-20T11:55:50.476Z,18.90
2023-08-20T11:58:25.112Z,18.90
2023-08-20T12:00:58.157Z,18.90
2023-08-20T12:03:34.980Z,18.87
2023-08-20T12:06:25.550Z,18.82
2023-08-20T12:08:59.456Z,18.74
2023-08-20T12:11:31.201Z,18.61
2023-08-20T12:14:03.099Z,18.54
2023-08-20T12:16:34.996Z,18.52
2023-08-20T12:19:06.733Z,18.45
2023-08-20T12:21:38.400Z,18.36
2023-08-20T12:24:13.315Z,18.32
2023-08-20T12:26:45.596Z,18.30
2023-08-20T12:29:17.080Z,18.41
2023-08-20T12:31:48.474Z,18.47
2023-08-20T12:34:20.162Z,18.48
2023-08-20T12:36:54.240Z,18.53
2023-08-20T12:39:27.874Z,18.54
2023-08-20T12:41:59.940Z,18.49
2023-08-20T12:44:31.601Z,18.45
2023-08-20T12:47:03.418Z,18.36
2023-08-20T12:49:35.070Z,18.27
2023-08-20T12:52:07.036Z,18.21
2023-08-20T12:54:40.570Z,18.18
2023-08-20T12:57:12.244Z,18.14
2023-08-20T12:59:43.848Z,18.06
2023-08-20T13:02:16.158Z,18.00
2023-08-20T13:04:48.725Z,17.95
2023-08-20T13:07:21.273Z,17.94
2023-08-20T13:09:56.012Z,17.91
2023-08-20T13:12:31.641Z,17.89
2023-08-20T13:15:06.007Z,17.85
2023-08-20T13:17:38.689Z,17.79
2023-08-20T13:20:11.828Z,17.60
2023-08-20T13:22:43.673Z,17.67
2023-08-20T13:25:17.397Z,17.61
2023-08-20T13:27:49.471Z,17.61
2023-08-20T13:30:21.461Z,17.60
2023-08-20T13:32:55.105Z,17.53
2023-08-20T13:35:27.470Z,17.52
2023-08-20T13:37:59.132Z,17.46
2023-08-20T13:40:34.834Z,17.48
2023-08-20T13:43:06.944Z,17.43
2023-08-20T13:45:38.834Z,17.39
2023-08-20T13:48:11.579Z,17.38
2023-08-20T13:50:43.133Z,17.36
2023-08-20T13:53:15.143Z,17.32
2023-08-20T13:55:48.791Z,17.29
2023-08-20T13:58:20.866Z,17.25
2023-08-20T14:00:53.335Z,17.25
2023-08-20T14:03:25.104Z,17.21
2023-08-20T14:05:56.815Z,16.88
2023-08-20T14:08:29.129Z,17.08
2023-08-20T14:11:03.399Z,17.05
2023-08-20T14:13:34.842Z,16.98
2023-08-20T14:16:06.532Z,16.92
2023-08-20T14:18:39.079Z,16.78
2023-08-20T14:21:10.974Z,16.87
2023-08-20T14:23:42.515Z,16.90
2023-08-20T14:26:16.028Z,16.88
2023-08-20T14:28:48.070Z,16.81
2023-08-20T14:31:21.301Z,16.79
2023-08-20T14:33:53.073Z,16.74
2023-08-20T14:36:24.627Z,16.76
2023-08-20T14:38:56.105Z,16.79
2023-08-20T14:41:30.309Z,16.55
2023-08-20T14:44:02.073Z,16.80
2023-08-20T14:46:34.217Z,16.77
2023-08-20T14:49:06.054Z,16.72
2023-08-20T14:51:37.921Z,16.56
2023-08-20T14:54:10.432Z,16.47
2023-08-20T14:56:43.715Z,16.39
2023-08-20T14:59:15.661Z,16.38
2023-08-20T15:01:47.364Z,16.20
2023-08-20T15:04:19.592Z,16.41
2023-08-20T15:06:51.301Z,16.47
2023-08-20T15:09:22.887Z,16.51
2023-08-20T15:11:57.043Z,16.45
2023-08-20T15:14:28.746Z,16.38
2023-08-20T15:17:01.403Z,16.34
2023-08-20T15:19:32.820Z,16.44
2023-08-20T15:22:05.435Z,16.39
2023-08-20T15:24:37.068Z,16.32
2023-08-20T15:27:10.732Z,16.32
2023-08-20T15:29:42.639Z,16.32
2023-08-20T15:32:14.188Z,16.33
2023-08-20T15:34:46.108Z,16.28
2023-08-20T15:37:17.751Z,16.27
2023-08-20T15:39:49.292Z,16.20
2023-08-20T15:42:22.547Z,16.15
2023-08-20T15:44:54.281Z,16.11
2023-08-20T15:47:26.003Z,16.12
2023-08-20T15:49:58.185Z,16.12
2023-08-20T15:52:30.143Z,16.07
2023-08-20T15:55:02.007Z,16.08
2023-08-20T15:57:35.614Z,16.05
2023-08-20T16:00:07.725Z,16.00
2023-08-20T16:02:39.547Z,15.90
2023-08-20T16:05:12.093Z,15.86
2023-08-20T16:07:44.033Z,15.89
2023-08-20T16:10:15.797Z,15.87
2023-08-20T16:12:49.115Z,15.67
2023-08-20T16:15:20.833Z,15.92
2023-08-20T16:17:52.270Z,15.98
2023-08-20T16:20:25.592Z,15.98
2023-08-20T16:22:56.943Z,15.93
2023-08-20T16:25:28.665Z,15.86
2023-08-20T16:28:02.732Z,15.78
2023-08-20T16:30:34.952Z,15.74
2023-08-20T16:33:07.114Z,15.70
2023-08-20T16:35:39.149Z,15.62
2023-08-20T16:38:11.872Z,15.58
2023-08-20T16:40:43.579Z,15.54
2023-08-20T16:43:17.684Z,15.25
2023-08-20T16:45:49.644Z,15.43
2023-08-20T16:48:21.787Z,15.42
2023-08-20T16:50:53.864Z,15.38
2023-08-20T16:53:26.137Z,15.36
2023-08-20T16:55:58.584Z,15.29
2023-08-20T16:58:31.980Z,15.22
2023-08-20T17:01:06.115Z,15.02
2023-08-20T17:03:38.472Z,14.91
2023-08-20T17:06:09.377Z,14.87
2023-08-20T17:08:40.023Z,14.78
2023-08-20T17:11:11.233Z,14.80
2023-08-20T17:13:44.232Z,15.04
2023-08-20T17:16:18.329Z,15.15
2023-08-20T17:18:50.261Z,15.27
2023-08-20T17:21:25.088Z,15.28
2023-08-20T17:23:55.752Z,15.29
2023-08-20T17:26:27.596Z,15.27
2023-08-20T17:28:59.986Z,15.24
2023-08-20T17:31:34.097Z,15.24
2023-08-20T17:34:07.546Z,15.33
2023-08-20T17:36:38.626Z,15.21
2023-08-20T17:39:10.153Z,15.27
2023-08-20T17:41:40.824Z,15.26
2023-08-20T17:44:13.125Z,15.33
2023-08-20T17:46:47.934Z,15.35
2023-08-20T17:49:21.629Z,15.42
2023-08-20T17:51:52.373Z,15.25
2023-08-20T17:54:23.085Z,15.15
2023-08-20T17:56:53.839Z,15.04
2023-08-20T17:59:26.066Z,15.21
2023-08-20T18:01:56.719Z,15.25
2023-08-20T18:04:30.360Z,15.27
2023-08-20T18:07:01.000Z,15.26
2023-08-20T18:09:36.970Z,15.26
2023-08-20T18:12:10.938Z,14.94
2023-08-20T18:14:43.153Z,15.15
2023-08-20T18:17:16.777Z,14.97
2023-08-20T18:19:47.968Z,15.14
2023-08-20T18:22:18.659Z,15.16
2023-08-20T18:24:49.363Z,15.16
2023-08-20T18:27:20.807Z,15.20
2023-08-20T18:29:53.114Z,15.22
2023-08-20T18:32:23.784Z,15.14
2023-08-20T18:34:57.106Z,15.20
2023-08-20T18:37:27.919Z,15.20
2023-08-20T18:39:58.550Z,15.21
2023-08-20T18:42:29.219Z,15.17
2023-08-20T18:45:01.485Z,15.15
2023-08-20T18:47:32.346Z,15.13
2023-08-20T18:50:06.251Z,15.18
2023-08-20T18:52:37.223Z,15.19
2023-08-20T18:55:08.708Z,15.19
2023-08-20T18:57:39.324Z,15.19
2023-08-20T19:00:15.712Z,15.19
2023-08-20T19:02:46.204Z,15.08
2023-08-20T19:05:16.776Z,15.04
2023-08-20T19:07:49.967Z,15.03
2023-08-20T19:10:20.777Z,15.03
2023-08-20T19:12:51.250Z,15.01
2023-08-20T19:15:23.605Z,15.09
2023-08-20T19:17:54.249Z,14.99
2023-08-20T19:20:24.906Z,15.04
2023-08-20T19:22:55.534Z,15.07
2023-08-20T19:25:26.165Z,15.08
2023-08-20T19:27:56.653Z,15.16
2023-08-20T19:30:31.815Z,15.14
2023-08-20T19:33:02.796Z,15.15
2023-08-20T19:35:36.818Z,15.14
2023-08-20T19:38:08.142Z,15.23
2023-08-20T19:40:39.359Z,15.25
2023-08-20T19:43:10.281Z,14.75
2023-08-20T19:45:42.568Z,15.28
2023-08-20T19:48:14.386Z,15.16
2023-08-20T19:50:45.209Z,15.04
2023-08-20T19:53:15.897Z,15.10
2023-08-20T19:55:46.512Z,15.16
2023-08-20T19:58:17.014Z,15.17
2023-08-20T20:00:49.305Z,15.16
2023-08-20T20:03:20.150Z,15.19
2023-08-20T20:05:50.861Z,15.15
2023-08-20T20:08:23.007Z,15.12
2023-08-20T20:10:56.005Z,14.99
2023-08-20T20:13:26.681Z,15.05
2023-08-20T20:15:58.755Z,15.10
2023-08-20T20:18:29.338Z,15.22
2023-08-20T20:21:00.011Z,15.41
2023-08-20T20:23:30.682Z,15.52
2023-08-20T20:26:01.802Z,15.53
2023-08-20T20:28:32.441Z,15.63
2023-08-20T20:31:04.729Z,15.72
2023-08-20T20:33:35.416Z,15.90
2023-08-20T20:36:07.391Z,16.25
2023-08-20T20:38:40.089Z,16.65
2023-08-20T20:41:11.766Z,16.88
2023-08-20T20:43:42.449Z,16.98
2023-08-20T20:46:14.711Z,16.92
2023-08-20T20:48:45.379Z,17.00
2023-08-20T20:51:15.951Z,17.06
2023-08-20T20:53:46.495Z,16.97
2023-08-20T20:56:17.045Z,17.00
2023-08-20T20:58:48.539Z,17.06
2023-08-20T21:01:22.925Z,17.13
2023-08-20T21:03:53.595Z,17.12
2023-08-20T21:06:24.325Z,17.04
2023-08-20T21:08:54.983Z,17.40
2023-08-20T21:11:25.563Z,17.57
2023-08-20T21:13:56.208Z,17.68
2023-08-20T21:16:28.421Z,17.82
2023-08-20T21:18:59.142Z,17.91
2023-08-20T21:21:29.896Z,17.94
2023-08-20T21:24:00.549Z,18.10
2023-08-20T21:26:31.133Z,18.16
2023-08-20T21:29:01.748Z,18.28
2023-08-20T21:31:34.015Z,18.42
2023-08-20T21:34:04.564Z,18.57
2023-08-20T21:36:35.193Z,18.68
2023-08-20T21:39:05.969Z,18.81
2023-08-20T21:41:36.582Z,18.75
2023-08-20T21:44:07.289Z,18.82
2023-08-20T21:46:39.589Z,18.79
2023-08-20T21:49:10.168Z,18.80
2023-08-20T21:51:40.886Z,18.90
2023-08-20T21:54:11.431Z,19.04
2023-08-20T21:56:42.012Z,19.13
2023-08-20T21:59:12.589Z,19.14
2023-08-20T22:01:45.323Z,19.35
2023-08-20T22:04:15.992Z,19.49
2023-08-20T22:06:46.571Z,19.68
2023-08-20T22:09:17.280Z,19.74
2023-08-20T22:11:47.919Z,19.78
2023-08-20T22:14:18.413Z,19.76
2023-08-20T22:17:04.155Z,19.91
2023-08-20T22:19:38.246Z,19.99
2023-08-20T22:22:08.901Z,20.19
2023-08-20T22:24:39.459Z,20.37
2023-08-20T22:27:10.158Z,20.42
2023-08-20T22:29:40.764Z,20.36
2023-08-20T22:32:12.997Z,20.48
2023-08-20T22:34:43.547Z,20.53
2023-08-20T22:37:14.209Z,20.57
2023-08-20T22:39:44.702Z,20.53
2023-08-20T22:42:15.284Z,20.47
2023-08-20T22:44:45.991Z,20.57
2023-08-20T22:47:18.715Z,20.56
2023-08-20T22:49:49.599Z,20.51
2023-08-20T22:52:20.731Z,20.37
2023-08-20T22:54:52.399Z,20.47
2023-08-20T22:57:23.158Z,20.68
2023-08-20T22:59:53.754Z,20.74
2023-08-20T23:02:26.647Z,20.79
2023-08-20T23:04:57.755Z,20.98
2023-08-20T23:07:28.346Z,21.25
2023-08-20T23:09:58.939Z,21.50
2023-08-20T23:12:29.602Z,21.29
2023-08-20T23:15:01.231Z,22.09
2023-08-20T23:17:33.494Z,22.27
2023-08-20T23:20:05.468Z,22.53
2023-08-20T23:22:38.718Z,22.78
2023-08-20T23:25:10.206Z,22.98
2023-08-20T23:27:40.785Z,23.25
2023-08-20T23:30:12.558Z,22.80
2023-08-20T23:32:46.799Z,23.56
2023-08-20T23:35:17.814Z,23.63
2023-08-20T23:37:48.479Z,23.79
2023-08-20T23:40:19.229Z,23.88
2023-08-20T23:42:49.831Z,23.98
2023-08-20T23:45:20.580Z,24.09
2023-08-20T23:47:52.904Z,24.15
2023-08-20T23:50:23.566Z,23.80
2023-08-20T23:52:54.171Z,24.44
2023-08-20T23:55:24.839Z,24.63
2023-08-20T23:57:55.358Z,24.77
